sensor_id;sensor_type;location;lat;lon;timestamp;pressure;altitude;pressure_sealevel;temperature;humidity
76603;BME280;65075;48.390;17.598;2023-08-01T00:00:02;99120.31;;;25.17;41.67
76603;BME280;65075;48.390;17.598;2023-08-01T00:02:30;99109.53;;;25.75;41.09
76603;BME280;65075;48.390;17.598;2023-08-01T00:04:55;99098.47;;;24.96;43.11
76603;BME280;65075;48.390;17.598;2023-08-01T00:07:21;99092.78;;;23.98;45.14
76603;BME280;65075;48.390;17.598;2023-08-01T00:09:46;99055.94;;;25.66;40.71
76603;BME280;65075;48.390;17.598;2023-08-01T00:12:12;99081.50;;;25.38;41.72
76603;BME280;65075;48.390;17.598;2023-08-01T00:14:37;99102.25;;;25.37;42.36
76603;BME280;65075;48.390;17.598;2023-08-01T00:17:03;99100.00;;;23.42;47.19
76603;BME280;65075;48.390;17.598;2023-08-01T00:19:29;99095.22;;;22.88;48.84
76603;BME280;65075;48.390;17.598;2023-08-01T00:21:54;99083.59;;;24.17;46.28
76603;BME280;65075;48.390;17.598;2023-08-01T00:24:20;99080.94;;;23.44;47.72
76603;BME280;65075;48.390;17.598;2023-08-01T00:26:45;99075.22;;;22.83;49.95
76603;BME280;65075;48.390;17.598;2023-08-01T00:29:11;99079.22;;;23.97;46.18
76603;BME280;65075;48.390;17.598;2023-08-01T00:31:36;99080.50;;;22.41;50.90
76603;BME280;65075;48.390;17.598;2023-08-01T00:34:02;99070.47;;;23.98;46.78
76603;BME280;65075;48.390;17.598;2023-08-01T00:36:28;99077.81;;;24.78;45.04
76603;BME280;65075;48.390;17.598;2023-08-01T00:38:53;99069.00;;;21.80;52.90
76603;BME280;65075;48.390;17.598;2023-08-01T00:41:19;99058.84;;;21.44;53.04
76603;BME280;65075;48.390;17.598;2023-08-01T00:43:44;99058.34;;;21.26;54.62
76603;BME280;65075;48.390;17.598;2023-08-01T00:46:10;99061.50;;;21.13;55.03
76603;BME280;65075;48.390;17.598;2023-08-01T00:48:35;99041.78;;;22.32;52.14
76603;BME280;65075;48.390;17.598;2023-08-01T00:51:06;99026.53;;;22.42;51.32
76603;BME280;65075;48.390;17.598;2023-08-01T00:53:34;99020.63;;;22.28;52.14
76603;BME280;65075;48.390;17.598;2023-08-01T00:56:00;99007.84;;;22.58;50.66
76603;BME280;65075;48.390;17.598;2023-08-01T00:58:26;99008.31;;;21.66;54.15
76603;BME280;65075;48.390;17.598;2023-08-01T01:00:52;99027.06;;;21.01;56.98
76603;BME280;65075;48.390;17.598;2023-08-01T01:03:18;99024.03;;;21.19;56.72
76603;BME280;65075;48.390;17.598;2023-08-01T01:05:57;99033.91;;;22.18;53.23
76603;BME280;65075;48.390;17.598;2023-08-01T01:08:23;99008.88;;;21.28;56.39
76603;BME280;65075;48.390;17.598;2023-08-01T01:10:49;99024.84;;;19.94;60.81
76603;BME280;65075;48.390;17.598;2023-08-01T01:13:14;99006.47;;;21.42;57.16
76603;BME280;65075;48.390;17.598;2023-08-01T01:15:40;99009.59;;;21.41;55.04
76603;BME280;65075;48.390;17.598;2023-08-01T01:18:05;99008.88;;;21.72;55.08
76603;BME280;65075;48.390;17.598;2023-08-01T01:20:35;99014.66;;;22.76;52.94
76603;BME280;65075;48.390;17.598;2023-08-01T01:23:04;99010.66;;;22.42;53.22
76603;BME280;65075;48.390;17.598;2023-08-01T01:25:32;98992.16;;;21.99;54.26
76603;BME280;65075;48.390;17.598;2023-08-01T01:27:59;99013.38;;;22.07;54.65
76603;BME280;65075;48.390;17.598;2023-08-01T01:30:28;99006.13;;;22.18;54.46
76603;BME280;65075;48.390;17.598;2023-08-01T01:32:55;98988.50;;;21.83;55.46
76603;BME280;65075;48.390;17.598;2023-08-01T01:35:20;98974.31;;;21.41;56.47
76603;BME280;65075;48.390;17.598;2023-08-01T01:37:46;98987.28;;;22.28;53.45
76603;BME280;65075;48.390;17.598;2023-08-01T01:40:11;98965.91;;;20.70;58.32
76603;BME280;65075;48.390;17.598;2023-08-01T01:42:37;98977.94;;;20.74;59.16
76603;BME280;65075;48.390;17.598;2023-08-01T01:45:03;98956.34;;;20.68;59.43
76603;BME280;65075;48.390;17.598;2023-08-01T01:47:29;98971.41;;;20.94;58.69
76603;BME280;65075;48.390;17.598;2023-08-01T01:49:55;98975.19;;;21.02;58.27
76603;BME280;65075;48.390;17.598;2023-08-01T01:52:20;98973.13;;;21.86;56.86
76603;BME280;65075;48.390;17.598;2023-08-01T01:54:46;98975.19;;;21.30;57.11
76603;BME280;65075;48.390;17.598;2023-08-01T01:57:11;98972.19;;;21.50;57.50
76603;BME280;65075;48.390;17.598;2023-08-01T01:59:37;98966.75;;;21.54;56.55
76603;BME280;65075;48.390;17.598;2023-08-01T02:02:02;98969.75;;;21.05;59.01
76603;BME280;65075;48.390;17.598;2023-08-01T02:04:29;98957.25;;;21.12;58.55
76603;BME280;65075;48.390;17.598;2023-08-01T02:06:55;98963.47;;;21.95;55.23
76603;BME280;65075;48.390;17.598;2023-08-01T02:09:21;98966.34;;;22.14;55.64
76603;BME280;65075;48.390;17.598;2023-08-01T02:11:46;98912.16;;;21.15;57.36
76603;BME280;65075;48.390;17.598;2023-08-01T02:14:13;98947.59;;;21.96;55.63
76603;BME280;65075;48.390;17.598;2023-08-01T02:16:38;98955.16;;;21.52;57.47
76603;BME280;65075;48.390;17.598;2023-08-01T02:19:04;98949.94;;;21.35;58.20
76603;BME280;65075;48.390;17.598;2023-08-01T02:21:29;98897.53;;;20.74;58.93
76603;BME280;65075;48.390;17.598;2023-08-01T02:23:55;98946.03;;;20.28;61.16
76603;BME280;65075;48.390;17.598;2023-08-01T02:26:20;98921.06;;;21.51;57.12
76603;BME280;65075;48.390;17.598;2023-08-01T02:28:48;98935.34;;;21.22;58.39
76603;BME280;65075;48.390;17.598;2023-08-01T02:31:15;98926.53;;;21.48;56.49
76603;BME280;65075;48.390;17.598;2023-08-01T02:33:41;98936.13;;;20.67;59.71
76603;BME280;65075;48.390;17.598;2023-08-01T02:36:06;98937.44;;;20.58;59.44
76603;BME280;65075;48.390;17.598;2023-08-01T02:38:32;98930.41;;;21.16;58.80
76603;BME280;65075;48.390;17.598;2023-08-01T02:40:57;98931.97;;;20.61;59.61
76603;BME280;65075;48.390;17.598;2023-08-01T02:43:23;98935.91;;;21.00;59.41
76603;BME280;65075;48.390;17.598;2023-08-01T02:45:49;98931.44;;;21.23;58.02
76603;BME280;65075;48.390;17.598;2023-08-01T02:48:14;98932.69;;;20.58;59.47
76603;BME280;65075;48.390;17.598;2023-08-01T02:50:40;98922.59;;;21.05;57.82
76603;BME280;65075;48.390;17.598;2023-08-01T02:53:05;98885.78;;;20.25;60.12
76603;BME280;65075;48.390;17.598;2023-08-01T02:55:31;98918.06;;;21.01;59.23
76603;BME280;65075;48.390;17.598;2023-08-01T02:57:57;98915.81;;;20.63;60.28
76603;BME280;65075;48.390;17.598;2023-08-01T03:00:24;98909.50;;;21.34;57.68
76603;BME280;65075;48.390;17.598;2023-08-01T03:02:51;98910.59;;;21.45;57.45
76603;BME280;65075;48.390;17.598;2023-08-01T03:05:17;98910.94;;;19.96;62.38
76603;BME280;65075;48.390;17.598;2023-08-01T03:07:42;98913.44;;;21.33;57.22
76603;BME280;65075;48.390;17.598;2023-08-01T03:10:08;98909.22;;;20.68;59.94
76603;BME280;65075;48.390;17.598;2023-08-01T03:12:34;98909.88;;;20.49;60.34
76603;BME280;65075;48.390;17.598;2023-08-01T03:15:00;98908.34;;;21.07;58.06
76603;BME280;65075;48.390;17.598;2023-08-01T03:17:27;98921.31;;;21.31;57.98
76603;BME280;65075;48.390;17.598;2023-08-01T03:19:53;98926.53;;;22.45;54.68
76603;BME280;65075;48.390;17.598;2023-08-01T03:22:18;98925.09;;;22.51;54.27
76603;BME280;65075;48.390;17.598;2023-08-01T03:24:44;98927.09;;;22.70;53.51
76603;BME280;65075;48.390;17.598;2023-08-01T03:27:09;98915.38;;;22.26;54.65
76603;BME280;65075;48.390;17.598;2023-08-01T03:29:35;98909.78;;;21.29;57.37
76603;BME280;65075;48.390;17.598;2023-08-01T03:32:00;98913.16;;;21.38;57.00
76603;BME280;65075;48.390;17.598;2023-08-01T03:34:26;98906.16;;;21.00;58.18
76603;BME280;65075;48.390;17.598;2023-08-01T03:36:52;98890.16;;;21.22;57.93
76603;BME280;65075;48.390;17.598;2023-08-01T03:39:18;98917.81;;;22.47;54.51
76603;BME280;65075;48.390;17.598;2023-08-01T03:41:43;98921.63;;;21.88;55.29
76603;BME280;65075;48.390;17.598;2023-08-01T03:44:09;98895.53;;;21.15;57.62
76603;BME280;65075;48.390;17.598;2023-08-01T03:46:35;98905.13;;;22.46;54.02
76603;BME280;65075;48.390;17.598;2023-08-01T03:49:00;98910.31;;;23.24;52.23
76603;BME280;65075;48.390;17.598;2023-08-01T03:51:26;98919.56;;;22.90;53.63
76603;BME280;65075;48.390;17.598;2023-08-01T03:53:51;98920.03;;;24.02;50.53
76603;BME280;65075;48.390;17.598;2023-08-01T03:56:17;98905.25;;;23.75;51.19
76603;BME280;65075;48.390;17.598;2023-08-01T03:58:42;98921.06;;;23.45;51.64
76603;BME280;65075;48.390;17.598;2023-08-01T04:01:08;98895.81;;;24.28;48.81
76603;BME280;65075;48.390;17.598;2023-08-01T04:03:33;98920.63;;;24.67;47.95
76603;BME280;65075;48.390;17.598;2023-08-01T04:05:59;98923.84;;;23.90;49.74
76603;BME280;65075;48.390;17.598;2023-08-01T04:08:24;98922.09;;;22.60;54.00
76603;BME280;65075;48.390;17.598;2023-08-01T04:10:50;98915.53;;;24.16;50.18
76603;BME280;65075;48.390;17.598;2023-08-01T04:13:16;98914.41;;;23.98;50.18
76603;BME280;65075;48.390;17.598;2023-08-01T04:15:41;98925.09;;;23.70;51.73
76603;BME280;65075;48.390;17.598;2023-08-01T04:18:07;98907.22;;;23.29;52.90
76603;BME280;65075;48.390;17.598;2023-08-01T04:20:33;98921.78;;;24.62;48.99
76603;BME280;65075;48.390;17.598;2023-08-01T04:22:58;98922.34;;;23.96;50.72
76603;BME280;65075;48.390;17.598;2023-08-01T04:25:24;98889.03;;;23.54;51.42
76603;BME280;65075;48.390;17.598;2023-08-01T04:27:52;98906.47;;;23.51;52.37
76603;BME280;65075;48.390;17.598;2023-08-01T04:30:17;98903.34;;;24.54;48.93
76603;BME280;65075;48.390;17.598;2023-08-01T04:32:43;98901.44;;;24.09;50.42
76603;BME280;65075;48.390;17.598;2023-08-01T04:35:08;98911.75;;;22.76;54.26
76603;BME280;65075;48.390;17.598;2023-08-01T04:37:34;98895.16;;;22.45;55.45
76603;BME280;65075;48.390;17.598;2023-08-01T04:40:00;98910.50;;;21.41;58.34
76603;BME280;65075;48.390;17.598;2023-08-01T04:42:25;98896.00;;;22.30;55.95
76603;BME280;65075;48.390;17.598;2023-08-01T04:44:51;98910.31;;;21.50;59.08
76603;BME280;65075;48.390;17.598;2023-08-01T04:47:17;98911.63;;;21.25;61.06
76603;BME280;65075;48.390;17.598;2023-08-01T04:49:43;98915.44;;;21.79;58.19
76603;BME280;65075;48.390;17.598;2023-08-01T04:52:08;98912.72;;;22.49;55.46
76603;BME280;65075;48.390;17.598;2023-08-01T04:54:34;98920.59;;;22.47;56.76
76603;BME280;65075;48.390;17.598;2023-08-01T04:56:59;98923.47;;;22.15;56.70
76603;BME280;65075;48.390;17.598;2023-08-01T04:59:25;98912.75;;;21.67;58.80
76603;BME280;65075;48.390;17.598;2023-08-01T05:01:50;98910.38;;;22.16;58.28
76603;BME280;65075;48.390;17.598;2023-08-01T05:04:16;98911.78;;;21.91;58.55
76603;BME280;65075;48.390;17.598;2023-08-01T05:06:41;98887.84;;;22.56;54.85
76603;BME280;65075;48.390;17.598;2023-08-01T05:09:07;98929.97;;;22.58;56.15
76603;BME280;65075;48.390;17.598;2023-08-01T05:11:33;98922.63;;;22.31;56.08
76603;BME280;65075;48.390;17.598;2023-08-01T05:13:58;98925.72;;;21.47;60.05
76603;BME280;65075;48.390;17.598;2023-08-01T05:16:24;98913.63;;;22.72;55.83
76603;BME280;65075;48.390;17.598;2023-08-01T05:18:49;98912.13;;;22.40;57.73
76603;BME280;65075;48.390;17.598;2023-08-01T05:21:15;98915.72;;;22.40;56.52
76603;BME280;65075;48.390;17.598;2023-08-01T05:23:40;98916.88;;;22.39;57.77
76603;BME280;65075;48.390;17.598;2023-08-01T05:26:06;98904.59;;;21.43;60.19
76603;BME280;65075;48.390;17.598;2023-08-01T05:28:32;98911.41;;;22.08;57.86
76603;BME280;65075;48.390;17.598;2023-08-01T05:30:57;98902.88;;;21.85;59.42
76603;BME280;65075;48.390;17.598;2023-08-01T05:33:23;98890.38;;;21.60;59.26
76603;BME280;65075;48.390;17.598;2023-08-01T05:35:49;98888.94;;;21.97;58.63
76603;BME280;65075;48.390;17.598;2023-08-01T05:38:15;98879.44;;;21.51;60.71
76603;BME280;65075;48.390;17.598;2023-08-01T05:40:41;98894.56;;;21.54;60.01
76603;BME280;65075;48.390;17.598;2023-08-01T05:43:06;98898.56;;;22.19;58.54
76603;BME280;65075;48.390;17.598;2023-08-01T05:45:36;98906.22;;;21.59;60.23
76603;BME280;65075;48.390;17.598;2023-08-01T05:48:02;98898.13;;;22.01;60.22
76603;BME280;65075;48.390;17.598;2023-08-01T05:50:28;98897.69;;;21.68;60.20
76603;BME280;65075;48.390;17.598;2023-08-01T05:52:53;98894.28;;;22.60;57.54
76603;BME280;65075;48.390;17.598;2023-08-01T05:55:19;98887.47;;;22.38;56.78
76603;BME280;65075;48.390;17.598;2023-08-01T05:57:45;98878.28;;;22.18;57.99
76603;BME280;65075;48.390;17.598;2023-08-01T06:00:11;98899.47;;;23.19;54.98
76603;BME280;65075;48.390;17.598;2023-08-01T06:02:37;98910.63;;;22.80;56.07
76603;BME280;65075;48.390;17.598;2023-08-01T06:05:02;98907.84;;;22.27;58.49
76603;BME280;65075;48.390;17.598;2023-08-01T06:07:29;98903.97;;;23.04;55.77
76603;BME280;65075;48.390;17.598;2023-08-01T06:09:54;98902.69;;;23.63;54.11
76603;BME280;65075;48.390;17.598;2023-08-01T06:12:20;98901.63;;;23.48;54.47
76603;BME280;65075;48.390;17.598;2023-08-01T06:14:46;98896.81;;;23.26;55.00
76603;BME280;65075;48.390;17.598;2023-08-01T06:17:13;98904.81;;;22.32;57.85
76603;BME280;65075;48.390;17.598;2023-08-01T06:19:39;98899.81;;;23.82;53.87
76603;BME280;65075;48.390;17.598;2023-08-01T06:22:04;98890.94;;;23.08;56.27
76603;BME280;65075;48.390;17.598;2023-08-01T06:24:30;98888.38;;;22.80;56.02
76603;BME280;65075;48.390;17.598;2023-08-01T06:26:55;98890.16;;;21.84;60.50
76603;BME280;65075;48.390;17.598;2023-08-01T06:29:21;98892.88;;;21.96;58.57
76603;BME280;65075;48.390;17.598;2023-08-01T06:31:47;98884.88;;;22.84;57.10
76603;BME280;65075;48.390;17.598;2023-08-01T06:34:12;98877.19;;;23.38;55.24
76603;BME280;65075;48.390;17.598;2023-08-01T06:36:38;98890.19;;;22.92;56.76
76603;BME280;65075;48.390;17.598;2023-08-01T06:39:03;98876.22;;;22.69;57.48
76603;BME280;65075;48.390;17.598;2023-08-01T06:41:29;98883.09;;;22.02;59.79
76603;BME280;65075;48.390;17.598;2023-08-01T06:43:54;98866.47;;;22.41;58.56
76603;BME280;65075;48.390;17.598;2023-08-01T06:46:20;98874.53;;;23.45;56.35
76603;BME280;65075;48.390;17.598;2023-08-01T06:48:45;98873.41;;;22.66;58.65
76603;BME280;65075;48.390;17.598;2023-08-01T06:51:11;98851.28;;;23.37;56.48
76603;BME280;65075;48.390;17.598;2023-08-01T06:53:36;98874.88;;;24.75;52.27
76603;BME280;65075;48.390;17.598;2023-08-01T06:56:06;98869.97;;;24.09;53.53
76603;BME280;65075;48.390;17.598;2023-08-01T06:58:32;98864.84;;;23.16;55.81
76603;BME280;65075;48.390;17.598;2023-08-01T07:00:57;98859.34;;;24.14;53.73
76603;BME280;65075;48.390;17.598;2023-08-01T07:03:23;98855.34;;;23.89;54.40
76603;BME280;65075;48.390;17.598;2023-08-01T07:05:48;98835.91;;;22.79;57.74
76603;BME280;65075;48.390;17.598;2023-08-01T07:08:14;98855.03;;;24.20;53.85
76603;BME280;65075;48.390;17.598;2023-08-01T07:10:40;98847.13;;;24.22;54.33
76603;BME280;65075;48.390;17.598;2023-08-01T07:13:05;98866.22;;;23.71;55.35
76603;BME280;65075;48.390;17.598;2023-08-01T07:15:34;98807.19;;;23.88;54.87
76603;BME280;65075;48.390;17.598;2023-08-01T07:18:00;98849.50;;;22.84;58.19
76603;BME280;65075;48.390;17.598;2023-08-01T07:20:26;98854.28;;;23.25;57.10
76603;BME280;65075;48.390;17.598;2023-08-01T07:22:51;98843.91;;;24.80;52.37
76603;BME280;65075;48.390;17.598;2023-08-01T07:25:17;98846.81;;;24.61;52.84
76603;BME280;65075;48.390;17.598;2023-08-01T07:27:44;98847.19;;;24.29;54.44
76603;BME280;65075;48.390;17.598;2023-08-01T07:30:10;98844.78;;;24.58;54.49
76603;BME280;65075;48.390;17.598;2023-08-01T07:32:36;98850.06;;;24.96;53.20
76603;BME280;65075;48.390;17.598;2023-08-01T07:35:04;98818.50;;;23.73;56.12
76603;BME280;65075;48.390;17.598;2023-08-01T07:37:32;98828.47;;;25.30;51.29
76603;BME280;65075;48.390;17.598;2023-08-01T07:39:58;98858.81;;;24.09;55.59
76603;BME280;65075;48.390;17.598;2023-08-01T07:42:23;98848.66;;;24.79;52.99
76603;BME280;65075;48.390;17.598;2023-08-01T07:44:49;98854.19;;;24.76;53.60
76603;BME280;65075;48.390;17.598;2023-08-01T07:47:14;98864.47;;;24.12;55.31
76603;BME280;65075;48.390;17.598;2023-08-01T07:49:40;98872.03;;;25.82;51.09
76603;BME280;65075;48.390;17.598;2023-08-01T07:52:06;98862.94;;;25.08;52.13
76603;BME280;65075;48.390;17.598;2023-08-01T07:54:32;98870.03;;;25.38;52.07
76603;BME280;65075;48.390;17.598;2023-08-01T07:56:57;98840.09;;;26.44;48.46
76603;BME280;65075;48.390;17.598;2023-08-01T07:59:23;98864.34;;;24.61;54.16
76603;BME280;65075;48.390;17.598;2023-08-01T08:01:48;98869.50;;;25.63;51.37
76603;BME280;65075;48.390;17.598;2023-08-01T08:04:14;98883.78;;;24.24;56.49
76603;BME280;65075;48.390;17.598;2023-08-01T08:06:40;98879.75;;;24.22;56.93
76603;BME280;65075;48.390;17.598;2023-08-01T08:09:06;98862.09;;;22.78;59.12
76603;BME280;65075;48.390;17.598;2023-08-01T08:11:32;98892.47;;;23.06;59.43
76603;BME280;65075;48.390;17.598;2023-08-01T08:13:59;98893.00;;;24.02;57.15
76603;BME280;65075;48.390;17.598;2023-08-01T08:16:25;98901.06;;;25.67;52.51
76603;BME280;65075;48.390;17.598;2023-08-01T08:18:51;98905.44;;;25.27;53.79
76603;BME280;65075;48.390;17.598;2023-08-01T08:21:16;98905.72;;;24.56;55.20
76603;BME280;65075;48.390;17.598;2023-08-01T08:23:42;98919.72;;;24.89;53.99
76603;BME280;65075;48.390;17.598;2023-08-01T08:26:10;98912.47;;;24.55;54.94
76603;BME280;65075;48.390;17.598;2023-08-01T08:28:36;98911.22;;;25.08;53.54
76603;BME280;65075;48.390;17.598;2023-08-01T08:31:02;98904.88;;;24.52;54.91
76603;BME280;65075;48.390;17.598;2023-08-01T08:33:29;98902.19;;;24.59;54.00
76603;BME280;65075;48.390;17.598;2023-08-01T08:35:55;98898.22;;;25.23;52.11
76603;BME280;65075;48.390;17.598;2023-08-01T08:38:22;98903.22;;;24.77;53.30
76603;BME280;65075;48.390;17.598;2023-08-01T08:43:39;98864.34;;;24.61;52.74
76603;BME280;65075;48.390;17.598;2023-08-01T08:46:05;98902.75;;;25.38;51.50
76603;BME280;65075;48.390;17.598;2023-08-01T08:48:31;98896.97;;;25.20;52.85
76603;BME280;65075;48.390;17.598;2023-08-01T08:51:00;98882.28;;;24.90;53.77
76603;BME280;65075;48.390;17.598;2023-08-01T08:53:26;98878.31;;;24.91;53.90
76603;BME280;65075;48.390;17.598;2023-08-01T08:55:52;98893.31;;;25.49;51.98
76603;BME280;65075;48.390;17.598;2023-08-01T08:58:18;98889.34;;;22.88;59.34
76603;BME280;65075;48.390;17.598;2023-08-01T09:00:45;98866.50;;;23.89;56.68
76603;BME280;65075;48.390;17.598;2023-08-01T09:03:12;98898.03;;;25.09;53.37
76603;BME280;65075;48.390;17.598;2023-08-01T09:05:48;98898.81;;;25.83;51.36
76603;BME280;65075;48.390;17.598;2023-08-01T09:08:20;98900.88;;;25.93;50.86
76603;BME280;65075;48.390;17.598;2023-08-01T09:10:47;98898.72;;;26.20;50.72
76603;BME280;65075;48.390;17.598;2023-08-01T09:13:12;98874.72;;;26.91;48.59
76603;BME280;65075;48.390;17.598;2023-08-01T09:15:41;98893.44;;;26.11;50.46
76603;BME280;65075;48.390;17.598;2023-08-01T09:18:08;98881.22;;;26.33;50.24
76603;BME280;65075;48.390;17.598;2023-08-01T09:20:59;98890.84;;;27.36;47.27
76603;BME280;65075;48.390;17.598;2023-08-01T09:23:27;98891.66;;;27.44;47.08
76603;BME280;65075;48.390;17.598;2023-08-01T09:25:53;98882.53;;;26.60;48.94
76603;BME280;65075;48.390;17.598;2023-08-01T09:28:23;98879.88;;;26.82;48.71
76603;BME280;65075;48.390;17.598;2023-08-01T09:30:54;98881.94;;;27.06;47.72
76603;BME280;65075;48.390;17.598;2023-08-01T09:33:21;98872.44;;;26.38;48.95
76603;BME280;65075;48.390;17.598;2023-08-01T09:35:49;98872.19;;;25.99;51.02
76603;BME280;65075;48.390;17.598;2023-08-01T09:38:15;98866.84;;;24.99;53.72
76603;BME280;65075;48.390;17.598;2023-08-01T09:40:43;98845.41;;;22.40;63.00
76603;BME280;65075;48.390;17.598;2023-08-01T09:43:11;98846.06;;;24.64;55.12
76603;BME280;65075;48.390;17.598;2023-08-01T09:45:37;98843.78;;;24.39;55.59
76603;BME280;65075;48.390;17.598;2023-08-01T09:48:02;98803.84;;;25.46;52.41
76603;BME280;65075;48.390;17.598;2023-08-01T09:50:28;98848.03;;;25.77;53.14
76603;BME280;65075;48.390;17.598;2023-08-01T09:52:54;98837.56;;;27.15;48.31
76603;BME280;65075;48.390;17.598;2023-08-01T09:55:31;98856.06;;;27.72;47.41
76603;BME280;65075;48.390;17.598;2023-08-01T09:57:58;98859.59;;;24.62;55.59
76603;BME280;65075;48.390;17.598;2023-08-01T10:00:29;98849.00;;;26.74;50.21
76603;BME280;65075;48.390;17.598;2023-08-01T10:02:58;98848.84;;;27.61;48.23
76603;BME280;65075;48.390;17.598;2023-08-01T10:05:34;98851.03;;;28.82;45.46
76603;BME280;65075;48.390;17.598;2023-08-01T10:08:02;98831.06;;;25.52;51.82
76603;BME280;65075;48.390;17.598;2023-08-01T10:10:28;98846.31;;;27.03;49.68
76603;BME280;65075;48.390;17.598;2023-08-01T10:12:56;98843.63;;;27.80;47.21
76603;BME280;65075;48.390;17.598;2023-08-01T10:15:24;98848.41;;;28.26;45.60
76603;BME280;65075;48.390;17.598;2023-08-01T10:17:51;98837.28;;;25.35;53.24
76603;BME280;65075;48.390;17.598;2023-08-01T10:20:16;98825.75;;;24.96;54.87
76603;BME280;65075;48.390;17.598;2023-08-01T10:22:44;98833.44;;;26.73;50.58
76603;BME280;65075;48.390;17.598;2023-08-01T10:25:10;98840.66;;;25.55;52.85
76603;BME280;65075;48.390;17.598;2023-08-01T10:27:36;98841.25;;;27.61;47.92
76603;BME280;65075;48.390;17.598;2023-08-01T10:30:04;98842.84;;;27.73;47.49
76603;BME280;65075;48.390;17.598;2023-08-01T10:32:38;98846.31;;;23.47;59.08
76603;BME280;65075;48.390;17.598;2023-08-01T10:35:04;98845.94;;;26.94;50.32
76603;BME280;65075;48.390;17.598;2023-08-01T10:37:42;98833.50;;;28.43;46.10
76603;BME280;65075;48.390;17.598;2023-08-01T10:40:08;98851.97;;;28.37;46.69
76603;BME280;65075;48.390;17.598;2023-08-01T10:42:42;98851.81;;;25.11;54.85
76603;BME280;65075;48.390;17.598;2023-08-01T10:45:28;98859.63;;;25.35;55.31
76603;BME280;65075;48.390;17.598;2023-08-01T10:48:07;98857.06;;;26.07;53.93
76603;BME280;65075;48.390;17.598;2023-08-01T10:50:33;98849.69;;;25.01;56.67
76603;BME280;65075;48.390;17.598;2023-08-01T10:53:03;98865.69;;;25.85;53.13
76603;BME280;65075;48.390;17.598;2023-08-01T10:55:48;98870.88;;;27.83;48.64
76603;BME280;65075;48.390;17.598;2023-08-01T10:58:15;98871.97;;;29.43;45.19
76603;BME280;65075;48.390;17.598;2023-08-01T11:00:44;98847.88;;;29.42;44.24
76603;BME280;65075;48.390;17.598;2023-08-01T11:03:10;98850.00;;;29.21;45.06
76603;BME280;65075;48.390;17.598;2023-08-01T11:05:35;98834.75;;;29.25;45.71
76603;BME280;65075;48.390;17.598;2023-08-01T11:08:03;98840.00;;;27.31;49.87
76603;BME280;65075;48.390;17.598;2023-08-01T11:10:30;98840.06;;;24.95;56.07
76603;BME280;65075;48.390;17.598;2023-08-01T11:12:57;98837.03;;;25.47;53.94
76603;BME280;65075;48.390;17.598;2023-08-01T11:15:23;98833.63;;;27.87;47.42
76603;BME280;65075;48.390;17.598;2023-08-01T11:17:52;98823.94;;;29.24;44.22
76603;BME280;65075;48.390;17.598;2023-08-01T11:20:20;98827.03;;;28.67;46.13
76603;BME280;65075;48.390;17.598;2023-08-01T11:25:17;98822.38;;;28.15;47.19
76603;BME280;65075;48.390;17.598;2023-08-01T11:27:43;98825.81;;;28.72;45.27
76603;BME280;65075;48.390;17.598;2023-08-01T11:30:08;98819.13;;;28.30;46.63
76603;BME280;65075;48.390;17.598;2023-08-01T11:32:36;98792.41;;;28.91;45.12
76603;BME280;65075;48.390;17.598;2023-08-01T11:35:02;98822.59;;;28.73;45.12
76603;BME280;65075;48.390;17.598;2023-08-01T11:37:28;98822.81;;;24.86;55.00
76603;BME280;65075;48.390;17.598;2023-08-01T11:39:54;98819.94;;;27.04;49.10
76603;BME280;65075;48.390;17.598;2023-08-01T11:42:20;98822.34;;;29.16;44.01
76603;BME280;65075;48.390;17.598;2023-08-01T11:44:46;98812.28;;;28.42;44.36
76603;BME280;65075;48.390;17.598;2023-08-01T11:47:14;98792.16;;;28.58;43.93
76603;BME280;65075;48.390;17.598;2023-08-01T11:49:48;98798.31;;;28.24;43.93
76603;BME280;65075;48.390;17.598;2023-08-01T11:52:27;98810.34;;;28.18;43.56
76603;BME280;65075;48.390;17.598;2023-08-01T11:54:54;98834.91;;;25.37;49.56
76603;BME280;65075;48.390;17.598;2023-08-01T11:57:23;98835.25;;;25.32;50.23
76603;BME280;65075;48.390;17.598;2023-08-01T11:59:52;98833.19;;;27.95;43.85
76603;BME280;65075;48.390;17.598;2023-08-01T12:02:25;98837.63;;;27.43;45.93
76603;BME280;65075;48.390;17.598;2023-08-01T12:04:52;98849.81;;;25.12;50.46
76603;BME280;65075;48.390;17.598;2023-08-01T12:07:18;98837.75;;;23.59;57.47
76603;BME280;65075;48.390;17.598;2023-08-01T12:09:55;98827.88;;;26.08;51.56
76603;BME280;65075;48.390;17.598;2023-08-01T12:12:21;98838.84;;;26.31;51.03
76603;BME280;65075;48.390;17.598;2023-08-01T12:14:47;98830.06;;;24.61;54.95
76603;BME280;65075;48.390;17.598;2023-08-01T12:17:12;98816.22;;;23.10;59.76
76603;BME280;65075;48.390;17.598;2023-08-01T12:19:37;98831.69;;;23.30;59.65
76603;BME280;65075;48.390;17.598;2023-08-01T12:22:03;98817.91;;;22.54;62.76
76603;BME280;65075;48.390;17.598;2023-08-01T12:24:29;98802.22;;;23.49;59.01
76603;BME280;65075;48.390;17.598;2023-08-01T12:26:54;98809.88;;;21.95;65.69
76603;BME280;65075;48.390;17.598;2023-08-01T12:29:20;98808.88;;;25.26;55.69
76603;BME280;65075;48.390;17.598;2023-08-01T12:31:46;98816.09;;;25.78;54.01
76603;BME280;65075;48.390;17.598;2023-08-01T12:34:11;98825.34;;;26.47;51.44
76603;BME280;65075;48.390;17.598;2023-08-01T12:36:37;98795.03;;;26.70;50.42
76603;BME280;65075;48.390;17.598;2023-08-01T12:39:02;98815.03;;;26.72;50.93
76603;BME280;65075;48.390;17.598;2023-08-01T12:41:29;98823.09;;;23.88;59.41
76603;BME280;65075;48.390;17.598;2023-08-01T12:43:54;98830.06;;;24.01;60.93
76603;BME280;65075;48.390;17.598;2023-08-01T12:46:20;98823.00;;;22.13;67.69
76603;BME280;65075;48.390;17.598;2023-08-01T12:48:45;98826.31;;;23.41;63.57
76603;BME280;65075;48.390;17.598;2023-08-01T12:51:11;98822.50;;;24.91;58.17